Terminal Aerodrome Forecast
Issued by NWS

Home | Current Version | Previous Version | Text Only | Print | Product List | Glossary On
Versions: 1 2 3 4 5 6 7 8 9 10 11 12 13 14 15 16 17 18 19 20 21 22 23 24 25
000
FTUS43 KGRB 281100
TAFMTW
TAF
KMTW 281130Z 2812/2912 00000KT P6SM SCT022 BKN120
      TEMPO 2814/2816 4SM BR BKN022
     FM281600 17005KT 6SM BR SCT022 BKN100
     FM282100 15010KT P6SM SCT025 BKN060 WS018/19035KT
     FM290400 16011KT P6SM BKN020 OVC050 WS018/19030KT PROB30
      2905/2911 2SM -FZRASNPL BR BKN012
     FM291100 29007KT 5SM -SN BR BKN012=

USA.gov is the U.S. government's official web portal to all federal, state and local government web resources and services.